Time;durP1;ratioP1;P1;durP2;ratioP2;P2;SDS_P1;SDS_P2;PMS_P1;PMS_P2;Temp;Humidity;BMP_temperature;BMP_pressure;BME280_temperature;BME280_humidity;BME280_pressure;Samples;Min_cycle;Max_cycle;Signal;HPM_P1;HPM_P2
2023/04/13 00:00:34;;;;;;;5.90;2.60;;;;;;;7.54;54.94;94071.34;5014843;28;20177;-75
2023/04/13 00:03:00;;;;;;;3.63;2.40;;;;;;;7.50;54.96;94070.16;4998944;28;20184;-75
2023/04/13 00:05:27;;;;;;;7.15;3.28;;;;;;;7.41;55.24;94063.56;5008586;28;20441;-77
2023/04/13 00:07:53;;;;;;;13.27;3.30;;;;;;;7.30;55.41;94072.09;5004790;28;20188;-76
2023/04/13 00:10:20;;;;;;;6.93;3.30;;;;;;;7.22;56.03;94073.13;4998803;28;20181;-75
2023/04/13 00:12:48;;;;;;;5.20;2.80;;;;;;;7.12;55.86;94072.78;4990384;28;20265;-75
2023/04/13 00:15:18;;;;;;;4.27;2.73;;;;;;;7.03;56.81;94076.66;4990578;28;20260;-75
2023/04/13 00:17:44;;;;;;;5.30;2.90;;;;;;;7.00;57.67;94085.72;5001701;28;20183;-75
2023/04/13 00:20:12;;;;;;;4.17;2.70;;;;;;;6.90;57.48;94077.53;5001960;28;20176;-75
2023/04/13 00:22:42;;;;;;;5.57;2.33;;;;;;;6.83;57.37;94085.38;4991614;28;20228;-75
2023/04/13 00:25:10;;;;;;;7.05;2.80;;;;;;;6.75;57.87;94090.81;4990064;28;20451;-75
2023/04/13 00:27:38;;;;;;;5.23;2.90;;;;;;;6.71;57.99;94101.91;5002398;28;20320;-75
2023/04/13 00:30:08;;;;;;;8.83;2.93;;;;;;;6.64;58.89;94093.28;4998842;28;20181;-75
2023/04/13 00:32:35;;;;;;;4.77;3.17;;;;;;;6.52;58.81;94076.63;5013817;28;20186;-75
2023/04/13 00:35:01;;;;;;;5.83;2.63;;;;;;;6.63;58.93;94091.69;5013755;28;20692;-75
2023/04/13 00:37:31;;;;;;;5.67;2.90;;;;;;;6.55;59.07;94091.91;4998827;28;20177;-75
2023/04/13 00:39:58;;;;;;;5.50;3.33;;;;;;;6.51;58.56;94086.28;4994357;28;20219;-75
2023/04/13 00:42:24;;;;;;;5.63;3.33;;;;;;;6.47;59.12;94079.06;5002499;28;20177;-75
2023/04/13 00:44:50;;;;;;;10.40;3.57;;;;;;;6.40;59.23;94085.09;5011543;28;20169;-75
2023/04/13 00:47:25;;;;;;;8.20;4.73;;;;;;;6.36;59.37;94085.72;5013914;28;20200;-75
2023/04/13 00:49:52;;;;;;;10.80;5.63;;;;;;;6.17;59.50;94069.03;5005195;28;20231;-75
2023/04/13 00:52:20;;;;;;;12.37;5.60;;;;;;;6.26;59.40;94091.34;5005163;28;20188;-75
2023/04/13 00:54:48;;;;;;;10.60;5.47;;;;;;;6.10;59.51;94093.56;5004320;28;20177;-75
2023/04/13 00:57:18;;;;;;;14.90;6.10;;;;;;;5.97;60.11;94076.88;5006140;28;20175;-75
2023/04/13 00:59:46;;;;;;;9.45;5.53;;;;;;;6.00;60.00;94086.16;5004964;28;20484;-75
2023/04/13 01:02:12;;;;;;;8.13;4.83;;;;;;;5.88;60.70;94077.31;5003345;28;20969;-76
2023/04/13 01:04:37;;;;;;;13.27;4.93;;;;;;;5.99;61.13;94094.97;4994263;28;20200;-76
2023/04/13 01:07:14;;;;;;;11.57;4.60;;;;;;;5.98;60.76;94098.59;5007162;28;20196;-76
2023/04/13 01:09:44;;;;;;;6.33;3.70;;;;;;;5.93;60.47;94098.41;5004049;28;20177;-76
2023/04/13 01:12:31;;;;;;;9.90;5.50;;;;;;;5.77;61.60;94075.28;5003087;28;20178;-76
2023/04/13 01:15:10;;;;;;;8.47;4.50;;;;;;;5.81;61.10;94086.91;4997862;28;20185;-76
2023/04/13 01:17:37;;;;;;;8.80;5.50;;;;;;;5.93;61.42;94104.44;5002939;28;20259;-76
2023/04/13 01:20:11;;;;;;;10.07;5.23;;;;;;;5.90;61.43;94099.59;5009809;28;20279;-76
2023/04/13 01:22:54;;;;;;;6.93;4.40;;;;;;;5.87;61.67;94102.59;5004951;28;20176;-76
2023/04/13 01:25:44;;;;;;;5.57;3.73;;;;;;;5.79;61.72;94102.81;5025971;28;20184;-76
2023/04/13 01:28:18;;;;;;;11.48;5.32;;;;;;;5.75;62.32;94103.38;5000871;28;20416;-76
2023/04/13 01:30:46;;;;;;;7.67;5.13;;;;;;;5.61;62.54;94089.53;5002644;28;20268;-76
2023/04/13 01:33:12;;;;;;;11.57;5.80;;;;;;;5.67;63.36;94099.97;5011584;28;20633;-76
2023/04/13 01:35:38;;;;;;;9.17;5.23;;;;;;;5.62;63.48;94106.78;5013326;28;20267;-76
2023/04/13 01:38:08;;;;;;;7.27;4.27;;;;;;;5.41;63.45;94078.25;5007384;28;20185;-76
2023/04/13 01:40:39;;;;;;;13.27;5.73;;;;;;;5.50;64.05;94103.97;5002556;28;20264;-76
2023/04/13 01:43:06;;;;;;;7.97;4.23;;;;;;;5.44;64.15;94104.75;4993821;28;20189;-76
2023/04/13 01:45:49;;;;;;;7.57;4.15;;;;;;;5.38;64.83;94097.69;5005442;28;20442;-76
2023/04/13 01:48:33;;;;;;;6.77;4.10;;;;;;;5.32;64.92;94095.88;5013530;28;20184;-76
2023/04/13 01:51:15;;;;;;;6.90;4.20;;;;;;;5.28;65.21;94092.06;5004469;28;20173;-77
2023/04/13 01:53:43;;;;;;;12.43;4.63;;;;;;;5.29;65.33;94091.84;4995245;28;20713;-77
2023/04/13 01:56:11;;;;;;;10.40;5.33;;;;;;;5.12;65.40;94069.75;5005245;28;20176;-77
2023/04/13 01:58:39;;;;;;;16.47;6.87;;;;;;;5.17;65.62;94092.66;5007310;28;20180;-76
2023/04/13 02:01:06;;;;;;;15.37;6.50;;;;;;;5.08;66.01;94078.16;5010426;28;20184;-77
2023/04/13 02:03:33;;;;;;;14.13;6.27;;;;;;;4.79;66.21;94046.19;5012953;28;20181;-76
2023/04/13 02:06:02;;;;;;;12.20;6.47;;;;;;;4.91;66.71;94096.78;5011291;28;20441;-77
2023/04/13 02:08:28;;;;;;;17.13;7.30;;;;;;;4.89;67.27;94098.75;5005813;28;20184;-76
2023/04/13 02:10:54;;;;;;;13.27;6.47;;;;;;;4.92;67.34;94095.78;5002741;28;20393;-76
2023/04/13 02:13:19;;;;;;;18.20;8.93;;;;;;;4.83;67.41;94094.34;5011287;28;20565;-77
2023/04/13 02:15:45;;;;;;;40.50;20.07;;;;;;;4.85;68.84;94096.72;5004089;28;20644;-76
2023/04/13 02:18:12;;;;;;;13.43;6.33;;;;;;;4.96;67.65;94098.78;5012853;28;20169;-76
2023/04/13 02:20:44;;;;;;;9.33;5.53;;;;;;;4.98;67.22;94098.59;5004000;28;20279;-76
2023/04/13 02:23:13;;;;;;;9.85;4.97;;;;;;;4.92;67.17;94103.59;5010725;28;20874;-76
2023/04/13 02:25:40;;;;;;;9.13;4.93;;;;;;;4.92;67.33;94103.59;5005595;28;20206;-76
2023/04/13 02:28:07;;;;;;;10.20;5.10;;;;;;;4.93;67.42;94099.16;5010866;28;20180;-76
2023/04/13 02:30:33;;;;;;;9.40;4.90;;;;;;;4.89;67.44;94105.78;5003930;28;20650;-76
2023/04/13 02:32:59;;;;;;;13.00;4.93;;;;;;;4.84;67.52;94108.94;5022181;28;20654;-76
2023/04/13 02:35:24;;;;;;;21.63;12.27;;;;;;;4.82;67.73;94116.19;5008984;28;20216;-76
2023/04/13 02:37:50;;;;;;;12.00;6.30;;;;;;;4.79;67.93;94095.72;5003630;28;20169;-77
2023/04/13 02:40:15;;;;;;;20.27;10.07;;;;;;;4.72;68.20;94109.72;5009018;28;20176;-77
2023/04/13 02:42:41;;;;;;;19.33;9.83;;;;;;;4.65;68.38;94114.09;5005983;28;20421;-77
2023/04/13 02:45:13;;;;;;;20.90;10.77;;;;;;;4.59;68.99;94107.84;5007850;28;20172;-77
2023/04/13 02:47:39;;;;;;;19.20;10.20;;;;;;;4.55;69.42;94094.41;5005095;28;20176;-77
2023/04/13 02:50:05;;;;;;;22.37;9.20;;;;;;;4.66;68.99;94106.09;5001467;28;20191;-76
2023/04/13 02:52:31;;;;;;;22.57;9.20;;;;;;;4.73;68.86;94114.75;5001047;28;20220;-76
2023/04/13 02:54:57;;;;;;;23.23;11.63;;;;;;;4.58;68.70;94103.66;4992371;28;20177;-76
2023/04/13 02:57:23;;;;;;;26.02;13.35;;;;;;;4.18;70.85;94119.00;5002893;28;20915;-77
2023/04/13 02:59:49;;;;;;;22.17;12.17;;;;;;;4.13;71.33;94112.78;5007133;28;20177;-76
2023/04/13 03:02:16;;;;;;;20.70;11.77;;;;;;;4.33;70.85;94124.13;5008144;28;20192;-76
2023/04/13 03:04:41;;;;;;;24.27;12.60;;;;;;;4.36;70.65;94133.34;4994164;28;20234;-77
2023/04/13 03:07:08;;;;;;;22.53;12.83;;;;;;;4.27;71.03;94124.06;5008782;28;20193;-76
2023/04/13 03:09:35;;;;;;;20.13;11.20;;;;;;;4.40;70.10;94130.19;5006354;28;20196;-76
2023/04/13 03:12:01;;;;;;;18.20;9.87;;;;;;;4.37;70.19;94137.56;5010243;28;20911;-76
2023/04/13 03:14:28;;;;;;;20.20;10.67;;;;;;;4.38;69.99;94120.94;5001701;28;20181;-76
2023/04/13 03:16:56;;;;;;;21.47;10.03;;;;;;;4.44;69.97;94138.41;4992249;28;20173;-77
2023/04/13 03:19:22;;;;;;;16.87;9.27;;;;;;;4.46;69.64;94141.66;4998558;28;20204;-76
2023/04/13 03:21:48;;;;;;;25.43;12.63;;;;;;;4.48;69.56;94137.88;5011539;28;20231;-76
2023/04/13 03:24:14;;;;;;;23.47;12.97;;;;;;;4.51;69.73;94136.66;5000389;28;20319;-75
2023/04/13 03:26:40;;;;;;;26.23;12.43;;;;;;;4.51;69.94;94131.44;4991295;28;20708;-75
2023/04/13 03:29:05;;;;;;;30.30;13.40;;;;;;;4.49;70.00;94134.25;4991466;28;20185;-75
2023/04/13 03:31:31;;;;;;;45.17;18.50;;;;;;;4.51;69.59;94136.66;5015928;28;20485;-77
2023/04/13 03:33:59;;;;;;;49.70;22.50;;;;;;;4.36;69.57;94115.13;5008833;28;20235;-77
2023/04/13 03:36:26;;;;;;;86.50;34.13;;;;;;;4.36;70.08;94134.16;4996381;28;20247;-77
2023/04/13 03:38:52;;;;;;;85.27;32.47;;;;;;;4.31;70.61;94143.56;5010971;28;20263;-77
2023/04/13 03:41:18;;;;;;;91.87;34.93;;;;;;;4.30;70.46;94140.16;5010640;28;20176;-77
2023/04/13 03:43:43;;;;;;;83.90;32.80;;;;;;;4.25;70.52;94149.50;4998545;28;20230;-77
2023/04/13 03:46:09;;;;;;;85.93;32.93;;;;;;;4.30;70.63;94147.16;5005305;28;20323;-77
2023/04/13 03:48:34;;;;;;;81.10;33.27;;;;;;;4.17;71.00;94124.41;5002103;28;20168;-77
2023/04/13 03:51:00;;;;;;;82.83;31.53;;;;;;;4.32;70.86;94132.16;5010697;28;20171;-77
2023/04/13 03:53:25;;;;;;;84.13;35.27;;;;;;;4.28;70.73;94128.28;5009716;28;20430;-77
2023/04/13 03:55:51;;;;;;;82.03;32.27;;;;;;;4.27;70.40;94127.50;4998731;28;20157;-77
2023/04/13 03:58:17;;;;;;;70.93;29.20;;;;;;;4.43;70.31;94142.00;4991179;28;20188;-77
2023/04/13 04:00:43;;;;;;;54.43;23.90;;;;;;;4.46;70.08;94136.44;5001362;28;20300;-77
2023/04/13 04:03:08;;;;;;;59.50;24.23;;;;;;;4.38;70.73;94147.81;5003458;28;20244;-77
2023/04/13 04:05:33;;;;;;;52.60;24.37;;;;;;;4.34;70.86;94140.56;5009057;28;20191;-77
2023/04/13 04:07:59;;;;;;;58.90;26.97;;;;;;;4.46;70.86;94150.25;5005081;28;20192;-77
2023/04/13 04:10:24;;;;;;;53.00;23.93;;;;;;;4.49;70.71;94154.31;5013732;28;20234;-76
2023/04/13 04:12:50;;;;;;;51.73;23.10;;;;;;;4.50;71.02;94154.09;5013484;28;20238;-76
2023/04/13 04:15:16;;;;;;;55.97;22.83;;;;;;;4.50;70.78;94138.44;5007167;28;20649;-76
2023/04/13 04:17:41;;;;;;;48.60;23.83;;;;;;;4.89;69.85;94148.31;5002336;28;20613;-76
2023/04/13 04:20:07;;;;;;;41.13;20.17;;;;;;;5.41;68.93;94152.13;5004332;28;20195;-76
2023/04/13 04:22:35;;;;;;;60.37;25.23;;;;;;;5.92;66.52;94164.69;5013511;28;20283;-76
2023/04/13 04:25:00;;;;;;;53.70;22.27;;;;;;;6.27;64.98;94162.72;4997724;28;20590;-78
2023/04/13 04:27:26;;;;;;;56.70;24.47;;;;;;;6.77;63.89;94161.25;5011003;28;20212;-76
2023/04/13 04:29:57;;;;;;;59.43;25.90;;;;;;;7.25;62.74;94166.16;5001613;28;20192;-75
2023/04/13 04:32:23;;;;;;;51.33;22.27;;;;;;;7.73;60.31;94169.94;4993272;28;20176;-75
2023/04/13 04:34:51;;;;;;;52.53;23.13;;;;;;;8.18;59.00;94172.47;4971363;28;1119737;-75
2023/04/13 04:37:20;;;;;;;43.00;20.20;;;;;;;8.56;56.56;94175.06;5003763;28;20296;-75
2023/04/13 04:39:47;;;;;;;32.70;15.40;;;;;;;8.95;54.21;94163.38;5007794;28;20192;-75
2023/04/13 04:42:13;;;;;;;37.67;18.40;;;;;;;9.46;52.78;94166.41;5005761;28;20246;-75
2023/04/13 04:44:38;;;;;;;48.40;20.53;;;;;;;10.33;52.70;94187.13;5013396;28;20180;-75
2023/04/13 04:47:04;;;;;;;44.87;20.67;;;;;;;11.26;49.78;94195.06;5014042;28;20708;-75
2023/04/13 04:49:30;;;;;;;56.57;27.87;;;;;;;11.99;47.05;94182.06;5008939;28;20181;-75
2023/04/13 04:51:56;;;;;;;62.57;25.97;;;;;;;12.82;46.27;94181.34;5009946;28;20195;-75
2023/04/13 04:54:24;;;;;;;50.93;23.53;;;;;;;13.76;44.73;94186.63;5013769;28;20188;-75
2023/04/13 04:56:50;;;;;;;49.20;22.23;;;;;;;14.64;41.44;94184.63;5001707;28;20181;-75
2023/04/13 04:59:18;;;;;;;35.97;17.83;;;;;;;15.47;39.21;94186.56;4993953;28;20430;-75
2023/04/13 05:01:44;;;;;;;35.53;16.83;;;;;;;16.29;37.20;94182.38;5002886;28;20556;-75
2023/04/13 05:04:09;;;;;;;37.17;15.53;;;;;;;17.04;37.00;94191.50;5012973;28;20184;-75
2023/04/13 05:06:35;;;;;;;20.50;11.67;;;;;;;17.81;35.11;94173.56;5001005;28;20189;-76
2023/04/13 05:09:05;;;;;;;20.13;10.95;;;;;;;18.57;33.38;94184.66;5002695;28;20185;-76
2023/04/13 05:11:32;;;;;;;21.13;11.73;;;;;;;19.23;32.05;94189.47;4993907;28;20220;-76
2023/04/13 05:13:57;;;;;;;18.08;10.25;;;;;;;19.69;30.87;94173.81;4994139;28;20235;-76
2023/04/13 05:16:23;;;;;;;8.35;5.28;;;;;;;20.49;28.62;94176.59;4998948;28;20665;-76
2023/04/13 05:18:49;;;;;;;10.57;6.00;;;;;;;21.27;28.15;94183.19;5013575;28;20180;-76
2023/04/13 05:21:15;;;;;;;9.05;3.67;;;;;;;21.78;26.61;94185.75;5013319;28;20184;-76
2023/04/13 05:23:41;;;;;;;9.52;3.67;;;;;;;22.23;26.02;94178.69;5013167;28;20181;-76
2023/04/13 05:26:10;;;;;;;5.20;2.58;;;;;;;22.73;24.95;94179.50;5013742;28;21042;-76
2023/04/13 05:28:35;;;;;;;7.90;2.50;;;;;;;23.09;24.75;94170.66;5013194;28;20188;-76
2023/04/13 05:31:06;;;;;;;4.47;2.38;;;;;;;23.46;23.98;94180.97;5003473;28;20181;-76
2023/04/13 05:33:35;;;;;;;7.47;3.05;;;;;;;23.79;22.51;94189.53;4993784;28;20181;-76
2023/04/13 05:36:02;;;;;;;9.45;3.17;;;;;;;24.07;22.16;94172.09;4993247;28;20618;-76
2023/04/13 05:38:27;;;;;;;8.35;3.05;;;;;;;24.43;22.24;94176.50;5002567;28;20188;-76
2023/04/13 05:40:53;;;;;;;6.43;2.95;;;;;;;25.01;21.84;94180.66;5001490;28;20192;-76
2023/04/13 05:43:19;;;;;;;20.23;4.25;;;;;;;25.47;22.09;94182.69;5017317;28;20631;-77
2023/04/13 05:45:45;;;;;;;10.82;6.80;;;;;;;25.76;20.74;94174.72;5002161;28;20193;-77
2023/04/13 05:48:11;;;;;;;7.88;4.60;;;;;;;25.90;20.65;94183.38;5012155;28;20271;-77
2023/04/13 05:50:36;;;;;;;30.75;17.52;;;;;;;26.33;20.27;94176.22;5013180;28;20977;-77
2023/04/13 05:53:04;;;;;;;12.43;6.50;;;;;;;27.17;19.33;94197.59;4998962;28;20191;-77
2023/04/13 05:55:30;;;;;;;11.50;6.10;;;;;;;27.18;18.40;94185.66;5002015;28;20177;-77
2023/04/13 05:57:55;;;;;;;9.38;3.85;;;;;;;27.20;18.54;94171.81;5001610;28;20574;-77
2023/04/13 06:00:21;;;;;;;3.95;2.97;;;;;;;27.27;18.90;94164.75;4993194;28;20320;-77
2023/04/13 06:02:50;;;;;;;7.50;3.22;;;;;;;27.27;18.00;94178.25;5001750;28;20177;-77
2023/04/13 06:05:19;;;;;;;5.07;3.25;;;;;;;27.38;18.50;94179.44;4993413;28;20181;-77
2023/04/13 06:07:46;;;;;;;7.47;3.00;;;;;;;26.43;18.19;94182.03;5001805;28;20189;-77
2023/04/13 06:10:14;;;;;;;7.53;3.28;;;;;;;25.90;19.81;94177.97;5002962;28;20185;-77
2023/04/13 06:12:40;;;;;;;8.48;3.20;;;;;;;25.87;19.01;94173.22;4998381;28;20183;-78
2023/04/13 06:15:06;;;;;;;7.03;3.35;;;;;;;25.38;18.39;94184.59;5001796;28;20181;-77
2023/04/13 06:17:31;;;;;;;7.43;2.90;;;;;;;25.41;18.60;94189.38;5001718;28;20180;-77
2023/04/13 06:19:57;;;;;;;6.00;3.15;;;;;;;25.30;19.04;94172.72;5007337;28;20172;-77
2023/04/13 06:22:22;;;;;;;8.50;3.95;;;;;;;25.52;19.37;94179.81;4995472;28;20176;-77
2023/04/13 06:24:50;;;;;;;6.20;3.28;;;;;;;25.28;19.60;94183.03;5011810;28;20188;-77
2023/04/13 06:27:17;;;;;;;6.50;3.67;;;;;;;25.32;20.28;94169.72;5012485;28;20196;-77
2023/04/13 06:29:43;;;;;;;11.75;4.90;;;;;;;25.58;20.50;94183.94;5005705;28;20180;-78
2023/04/13 06:32:09;;;;;;;8.57;3.85;;;;;;;25.09;19.28;94177.19;4998088;28;20308;-77
2023/04/13 06:34:36;;;;;;;7.22;3.33;;;;;;;24.95;19.78;94181.94;4997069;28;20216;-77
2023/04/13 06:37:02;;;;;;;7.13;3.85;;;;;;;24.15;20.89;94186.66;5007003;28;20184;-76
2023/04/13 06:39:27;;;;;;;9.77;4.47;;;;;;;23.54;22.08;94177.56;5001167;28;20243;-77
2023/04/13 06:41:53;;;;;;;7.95;4.05;;;;;;;22.61;23.11;94176.53;5021689;28;20173;-77
2023/04/13 06:44:18;;;;;;;6.32;3.58;;;;;;;21.82;22.90;94178.69;5004941;28;20181;-77
2023/04/13 06:46:44;;;;;;;10.15;4.20;;;;;;;21.15;23.67;94170.22;5006111;28;20705;-77
2023/04/13 06:49:09;;;;;;;7.90;4.60;;;;;;;21.02;24.29;94171.75;4999150;28;20165;-77
2023/04/13 06:51:35;;;;;;;10.23;3.72;;;;;;;20.81;23.97;94172.38;4997025;28;20181;-77
2023/04/13 06:54:00;;;;;;;5.68;3.97;;;;;;;20.65;25.31;94177.16;4998032;28;20164;-78
2023/04/13 06:56:26;;;;;;;9.50;3.95;;;;;;;20.06;25.39;94161.63;5002473;28;20235;-77
2023/04/13 06:58:51;;;;;;;9.00;3.53;;;;;;;20.37;27.00;94168.19;5005282;28;20256;-80
2023/04/13 07:01:18;;;;;;;8.55;4.13;;;;;;;20.61;25.72;94171.59;5006976;28;20180;-78
2023/04/13 07:03:43;;;;;;;7.68;3.50;;;;;;;20.64;25.30;94160.31;5007022;28;20185;-79
2023/04/13 07:06:09;;;;;;;9.20;4.55;;;;;;;20.63;25.78;94156.06;5003779;28;20181;-78
2023/04/13 07:08:34;;;;;;;7.93;3.20;;;;;;;20.63;26.77;94166.75;5004652;28;20211;-78
2023/04/13 07:11:01;;;;;;;12.27;4.07;;;;;;;20.18;25.58;94160.13;5009229;28;20605;-78
2023/04/13 07:13:27;;;;;;;9.50;3.97;;;;;;;20.03;27.95;94165.66;5004257;28;20184;-78
2023/04/13 07:15:52;;;;;;;5.50;3.63;;;;;;;19.98;26.24;94153.16;5002127;28;20541;-77
2023/04/13 07:18:17;;;;;;;7.63;3.45;;;;;;;20.02;27.55;94160.59;5003631;28;20238;-78
2023/04/13 07:20:43;;;;;;;11.48;3.88;;;;;;;19.86;25.62;94142.09;5006564;28;20550;-79
2023/04/13 07:23:08;;;;;;;7.45;3.35;;;;;;;19.88;26.84;94166.66;5004997;28;20181;-78
2023/04/13 07:25:34;;;;;;;9.38;3.30;;;;;;;19.94;28.01;94138.00;5001231;28;20177;-78
2023/04/13 07:28:00;;;;;;;9.00;4.07;;;;;;;20.21;25.71;94164.09;5000802;28;20173;-78
2023/04/13 07:30:29;;;;;;;8.15;3.38;;;;;;;20.30;27.62;94144.47;4995028;28;20177;-79
2023/04/13 07:32:54;;;;;;;5.85;3.35;;;;;;;20.34;25.34;94153.50;5001883;28;20654;-79
2023/04/13 07:35:20;;;;;;;5.60;3.92;;;;;;;19.75;27.27;94153.19;5004262;28;20212;-78
2023/04/13 07:37:48;;;;;;;7.85;4.03;;;;;;;19.49;26.24;94158.00;5001691;28;20725;-79
2023/04/13 07:40:15;;;;;;;8.85;4.00;;;;;;;19.30;27.46;94152.56;4998999;28;20666;-79
2023/04/13 07:42:41;;;;;;;8.40;3.47;;;;;;;19.21;27.47;94154.25;5003167;28;20297;-79
2023/04/13 07:45:07;;;;;;;10.93;3.60;;;;;;;19.02;27.16;94151.50;4998778;28;20255;-77
2023/04/13 07:47:32;;;;;;;10.07;3.50;;;;;;;19.28;27.54;94127.25;5000727;28;20294;-78
2023/04/13 07:49:58;;;;;;;6.63;3.55;;;;;;;19.74;27.47;94149.72;5001266;28;20354;-78
2023/04/13 07:52:23;;;;;;;9.05;4.15;;;;;;;20.22;27.64;94149.66;5002304;28;20634;-78
2023/04/13 07:54:49;;;;;;;7.53;4.03;;;;;;;20.49;27.97;94136.47;4995384;28;20185;-78
2023/04/13 07:57:18;;;;;;;12.65;4.60;;;;;;;19.85;25.33;94126.34;5009114;28;20172;-77
2023/04/13 07:59:43;;;;;;;8.27;3.92;;;;;;;19.12;26.37;94142.59;5005297;28;20634;-77
2023/04/13 08:02:08;;;;;;;11.82;3.80;;;;;;;18.90;27.17;94140.41;4998172;28;20228;-77
2023/04/13 08:04:34;;;;;;;12.65;4.15;;;;;;;18.79;28.87;94138.88;4996769;28;20534;-79
2023/04/13 08:07:03;;;;;;;8.60;3.92;;;;;;;18.08;29.85;94091.38;5008429;28;20223;-79
2023/04/13 08:09:37;;;;;;;9.00;4.03;;;;;;;18.98;30.40;94131.00;5001919;28;20173;-79
2023/04/13 08:12:03;;;;;;;11.60;5.32;;;;;;;19.59;29.46;94115.19;5006269;28;20253;-79
2023/04/13 08:14:28;;;;;;;8.70;4.55;;;;;;;20.27;30.48;94126.31;5019097;28;20271;-80
2023/04/13 08:16:54;;;;;;;6.05;3.65;;;;;;;20.54;28.12;94125.69;5005900;28;20180;-79
2023/04/13 08:19:19;;;;;;;8.68;4.10;;;;;;;20.86;27.76;94122.25;5003474;28;20173;-77
2023/04/13 08:21:45;;;;;;;10.73;4.18;;;;;;;21.00;25.51;94111.59;4998752;28;20560;-79
2023/04/13 08:24:11;;;;;;;5.50;3.55;;;;;;;20.91;25.85;94124.84;5005248;28;20533;-79
2023/04/13 08:26:37;;;;;;;11.18;3.63;;;;;;;20.74;26.31;94116.56;5000107;28;20192;-78
2023/04/13 08:29:02;;;;;;;6.72;4.00;;;;;;;20.37;25.66;94097.88;5006274;28;20180;-79
2023/04/13 08:31:27;;;;;;;10.98;3.95;;;;;;;20.12;27.06;94109.69;4994480;28;20185;-78
2023/04/13 08:33:53;;;;;;;14.02;4.25;;;;;;;20.41;26.34;94110.38;4993646;28;20186;-79
2023/04/13 08:36:18;;;;;;;5.90;3.97;;;;;;;20.39;27.94;94085.81;4990341;28;20234;-79
2023/04/13 08:38:44;;;;;;;8.93;4.75;;;;;;;20.71;27.17;94111.78;4990304;28;20173;-79
2023/04/13 08:41:09;;;;;;;9.02;4.43;;;;;;;20.58;26.18;94110.63;4990037;28;20180;-79
2023/04/13 08:43:37;;;;;;;7.93;3.72;;;;;;;20.50;26.77;94105.94;4998640;28;20538;-79
2023/04/13 08:46:06;;;;;;;16.17;4.95;;;;;;;20.37;26.47;94104.03;4996614;28;20189;-80
2023/04/13 08:48:41;;;;;;;10.60;4.32;;;;;;;20.34;27.10;94081.31;5008301;28;20243;-78
2023/04/13 08:51:09;;;;;;;9.40;3.70;;;;;;;20.08;28.09;94098.00;5010410;28;20179;-79
2023/04/13 08:53:34;;;;;;;8.43;4.13;;;;;;;19.12;27.89;94094.56;5011738;28;20192;-80
2023/04/13 08:56:02;;;;;;;10.10;4.30;;;;;;;18.98;30.14;94097.09;5008981;28;20173;-80
2023/04/13 08:58:30;;;;;;;8.07;3.78;;;;;;;19.21;31.02;94087.53;5007535;28;20191;-80
2023/04/13 09:00:57;;;;;;;8.05;4.07;;;;;;;18.95;28.71;94070.19;5002596;28;20170;-79
2023/04/13 09:03:24;;;;;;;13.57;4.82;;;;;;;19.39;30.84;94089.47;5003733;28;20169;-80
2023/04/13 09:06:03;;;;;;;10.50;4.32;;;;;;;20.05;29.53;94070.00;5001009;28;20197;-78
2023/04/13 09:08:34;;;;;;;7.72;4.53;;;;;;;20.64;29.00;94080.06;5010296;28;20252;-78
2023/04/13 09:11:01;;;;;;;12.88;4.20;;;;;;;20.65;27.42;94075.53;5013493;28;20176;-78
2023/04/13 09:13:27;;;;;;;13.75;4.80;;;;;;;20.55;29.18;94078.34;5000100;28;20568;-78
2023/04/13 09:15:52;;;;;;;12.18;4.13;;;;;;;20.73;29.41;94074.84;5006022;28;20164;-77
2023/04/13 09:18:19;;;;;;;18.80;4.10;;;;;;;20.97;28.36;94077.38;5008716;28;20168;-77
2023/04/13 09:20:58;;;;;;;6.82;3.75;;;;;;;21.20;28.30;94068.41;5003148;28;20201;-75
2023/04/13 09:23:24;;;;;;;9.63;3.75;;;;;;;21.14;27.26;94058.88;5007589;28;20226;-76
2023/04/13 09:26:02;;;;;;;8.65;3.40;;;;;;;21.15;27.34;94065.81;5000334;28;20197;-76
2023/04/13 09:28:29;;;;;;;8.15;3.53;;;;;;;21.00;28.76;94058.88;4997712;28;20252;-77
2023/04/13 09:31:01;;;;;;;11.45;3.95;;;;;;;20.98;28.91;94039.63;5001809;28;20180;-77
2023/04/13 09:33:27;;;;;;;11.75;3.50;;;;;;;21.06;28.14;94036.25;5008097;28;20173;-78
2023/04/13 09:35:52;;;;;;;10.30;4.50;;;;;;;21.14;29.32;94050.03;5002080;28;20669;-78
2023/04/13 09:38:18;;;;;;;7.43;3.83;;;;;;;20.91;28.06;94038.44;5002141;28;20188;-77
2023/04/13 09:40:48;;;;;;;18.33;4.55;;;;;;;20.88;29.49;94029.09;5002817;28;20180;-77
2023/04/13 09:43:13;;;;;;;10.70;4.50;;;;;;;20.52;27.13;94042.28;5003615;28;20189;-78
2023/04/13 09:45:44;;;;;;;9.18;3.97;;;;;;;19.90;27.73;94046.13;5015093;28;20737;-78
2023/04/13 09:48:20;;;;;;;7.55;3.55;;;;;;;19.57;28.09;94043.38;5007801;28;20175;-77
2023/04/13 09:50:57;;;;;;;6.18;3.30;;;;;;;19.31;29.62;94033.25;5002861;28;20184;-77
2023/04/13 09:53:22;;;;;;;11.25;3.45;;;;;;;19.35;29.79;94032.41;5008882;28;20168;-77
2023/04/13 09:55:56;;;;;;;9.85;4.00;;;;;;;19.31;30.81;94011.91;5002491;28;20187;-77
2023/04/13 09:58:22;;;;;;;10.90;3.20;;;;;;;19.51;30.00;94006.34;5005133;28;20223;-77
2023/04/13 10:00:47;;;;;;;7.53;3.25;;;;;;;19.70;31.83;94004.50;5003500;28;20267;-76
2023/04/13 10:03:14;;;;;;;8.23;3.20;;;;;;;19.86;31.23;94013.88;5020642;28;20188;-76
2023/04/13 10:05:44;;;;;;;7.93;3.53;;;;;;;20.01;31.61;94018.19;5001291;28;20185;-77
2023/04/13 10:08:09;;;;;;;5.60;3.28;;;;;;;19.70;29.91;93993.00;5003847;28;20187;-79
2023/04/13 10:10:36;;;;;;;7.28;3.08;;;;;;;19.83;28.96;94014.44;5020696;28;20259;-76
2023/04/13 10:13:12;;;;;;;7.28;3.50;;;;;;;19.58;28.97;94007.56;5003160;28;20181;-76
2023/04/13 10:16:15;;;;;;;10.02;3.47;;;;;;;19.48;31.07;94001.56;5005564;28;20251;-76
2023/04/13 10:19:02;;;;;;;5.97;3.15;;;;;;;19.58;30.95;94010.25;5003550;28;20637;-76
2023/04/13 10:21:50;;;;;;;10.18;3.08;;;;;;;19.64;29.94;94015.50;5005704;28;20230;-77
2023/04/13 10:24:17;;;;;;;7.20;4.03;;;;;;;19.72;29.86;94007.63;5001824;28;20263;-77
2023/04/13 10:26:43;;;;;;;12.38;3.47;;;;;;;19.71;32.25;93998.06;5003158;28;20192;-77
2023/04/13 10:29:10;;;;;;;5.35;3.10;;;;;;;19.70;30.23;93979.66;5006112;28;20184;-77
2023/04/13 10:31:40;;;;;;;13.00;3.33;;;;;;;19.84;31.52;93993.88;5004750;28;20184;-77
2023/04/13 10:34:09;;;;;;;7.35;3.75;;;;;;;19.81;30.71;94000.56;4993236;28;20189;-78
2023/04/13 10:36:42;;;;;;;7.03;3.28;;;;;;;19.78;32.41;93998.50;5004695;28;20179;-77
2023/04/13 10:39:09;;;;;;;6.65;3.67;;;;;;;19.81;30.27;93995.22;4996801;28;20192;-77
2023/04/13 10:41:36;;;;;;;9.40;3.60;;;;;;;19.60;33.99;93988.59;5009340;28;20235;-76
2023/04/13 10:44:07;;;;;;;9.35;3.58;;;;;;;19.53;32.35;93988.16;5001357;28;20681;-77
2023/04/13 10:46:34;;;;;;;7.28;3.40;;;;;;;19.65;35.72;93980.50;5000942;28;20251;-77
2023/04/13 10:49:01;;;;;;;9.52;2.63;;;;;;;19.72;31.95;93980.94;5002145;28;20684;-77
2023/04/13 10:51:40;;;;;;;10.27;3.40;;;;;;;19.71;29.65;93987.38;4995173;28;20646;-77
2023/04/13 10:54:07;;;;;;;6.50;2.63;;;;;;;19.53;30.37;93978.28;5006214;28;20242;-77
2023/04/13 10:56:32;;;;;;;6.68;2.85;;;;;;;19.47;32.17;93976.75;5003413;28;20660;-77
2023/04/13 10:58:58;;;;;;;6.88;3.10;;;;;;;19.45;35.41;93957.53;5004975;28;20255;-77
2023/04/13 11:01:24;;;;;;;11.02;2.38;;;;;;;19.68;36.80;93965.78;5027584;28;20275;-77
2023/04/13 11:03:50;;;;;;;3.15;1.90;;;;;;;19.72;31.85;93958.81;5004078;28;20247;-77
2023/04/13 11:06:16;;;;;;;4.30;2.15;;;;;;;19.91;34.21;93957.69;5025409;28;20704;-77
2023/04/13 11:08:42;;;;;;;3.00;2.05;;;;;;;20.07;34.71;93968.91;5003431;28;20181;-77
2023/04/13 11:11:10;;;;;;;2.65;2.20;;;;;;;20.15;31.23;93957.56;4996216;28;20256;-78
2023/04/13 11:13:46;;;;;;;5.90;2.25;;;;;;;19.93;32.79;93960.06;5012236;28;20184;-77
2023/04/13 11:16:12;;;;;;;3.15;2.10;;;;;;;19.77;31.55;93958.72;4999806;28;20169;-77
2023/04/13 11:18:38;;;;;;;4.82;2.08;;;;;;;19.90;34.90;93950.75;5004637;28;20268;-77
2023/04/13 11:21:03;;;;;;;3.40;1.95;;;;;;;20.02;33.97;93950.31;5000405;28;20644;-77
2023/04/13 11:23:33;;;;;;;3.10;1.98;;;;;;;19.84;30.04;93946.56;5011589;28;20185;-77
2023/04/13 11:26:00;;;;;;;2.10;1.77;;;;;;;19.52;30.50;93935.84;5011717;28;20200;-77
2023/04/13 11:28:45;;;;;;;5.18;3.30;;;;;;;19.54;32.94;93933.69;5003545;28;20263;-77
2023/04/13 11:31:11;;;;;;;4.30;2.30;;;;;;;19.66;33.58;93914.53;5027511;28;20639;-77
2023/04/13 11:33:38;;;;;;;7.60;2.67;;;;;;;19.82;32.92;93927.38;5004009;28;20215;-77